Time;durP1;ratioP1;P1;durP2;ratioP2;P2;SDS_P1;SDS_P2;PMS_P1;PMS_P2;Temp;Humidity;BMP_temperature;BMP_pressure;BME280_temperature;BME280_humidity;BME280_pressure;Samples;Min_cycle;Max_cycle;Signal;HPM_P1;HPM_P2
2021/03/23 00:00:56;;;;;;;6.97;3.30;;;;;;;10.03;54.46;101275.69;4880528;28;98856;-63
2021/03/23 00:03:25;;;;;;;7.63;3.30;;;;;;;10.04;54.94;101280.00;4879696;28;98204;-63
2021/03/23 00:05:52;;;;;;;7.55;3.50;;;;;;;10.07;55.05;101274.94;4882967;28;97849;-60
2021/03/23 00:08:46;;;;;;;7.07;3.38;;;;;;;10.03;55.13;101276.50;4866636;28;99873;-63
2021/03/23 00:11:16;;;;;;;6.10;3.05;;;;;;;10.03;54.79;101279.19;4862789;28;98949;-63
2021/03/23 00:13:44;;;;;;;8.32;3.47;;;;;;;10.05;54.72;101281.63;4868592;28;98478;-63
2021/03/23 00:16:10;;;;;;;6.47;3.05;;;;;;;10.02;55.11;101282.97;4881995;28;97690;-63
2021/03/23 00:18:36;;;;;;;6.13;2.90;;;;;;;10.05;55.10;101285.13;4881205;28;98694;-63
2021/03/23 00:21:03;;;;;;;6.38;3.35;;;;;;;10.02;55.00;101288.34;4860118;28;98970;-63
2021/03/23 00:23:29;;;;;;;7.07;3.17;;;;;;;10.05;54.89;101287.84;4878825;28;97948;-63
2021/03/23 00:25:55;;;;;;;6.22;3.10;;;;;;;10.05;55.29;101287.03;4881978;28;97971;-63
2021/03/23 00:28:23;;;;;;;6.30;2.90;;;;;;;10.04;55.38;101285.41;4880664;28;126727;-63
2021/03/23 00:30:53;;;;;;;6.55;3.15;;;;;;;10.00;55.07;101286.94;4881593;28;98581;-60
2021/03/23 00:33:19;;;;;;;6.85;2.95;;;;;;;10.03;55.13;101286.47;4881461;28;98311;-60
2021/03/23 00:35:46;;;;;;;5.93;3.05;;;;;;;10.06;55.31;101289.50;4877783;28;97867;-60
2021/03/23 00:38:12;;;;;;;6.00;2.92;;;;;;;10.05;55.04;101289.72;4862318;28;98780;-63
2021/03/23 00:40:38;;;;;;;6.88;3.08;;;;;;;10.03;55.55;101283.78;4866491;28;98329;-60
2021/03/23 00:43:05;;;;;;;5.93;3.00;;;;;;;10.05;55.32;101287.03;4866533;28;98084;-63
2021/03/23 00:45:32;;;;;;;6.85;3.30;;;;;;;10.01;55.06;101286.69;4884535;28;99002;-63
2021/03/23 00:47:58;;;;;;;6.03;3.35;;;;;;;10.00;55.12;101285.06;4884933;28;98430;-63
2021/03/23 00:50:25;;;;;;;6.65;3.13;;;;;;;10.01;54.91;101286.69;4881916;28;99579;-59
2021/03/23 00:52:51;;;;;;;5.97;2.90;;;;;;;10.02;55.05;101291.03;4882094;28;127635;-60
2021/03/23 00:55:17;;;;;;;6.30;2.97;;;;;;;10.04;55.17;101291.59;4882093;28;113754;-63
2021/03/23 00:57:43;;;;;;;8.73;3.15;;;;;;;10.02;55.52;101288.34;4864466;28;127817;-60
2021/03/23 01:00:11;;;;;;;6.32;3.30;;;;;;;10.02;55.74;101287.50;4862065;28;128185;-60
2021/03/23 01:02:38;;;;;;;6.88;3.22;;;;;;;10.02;56.09;101284.81;4862530;28;98110;-60
2021/03/23 01:05:05;;;;;;;6.07;3.00;;;;;;;9.98;55.27;101279.13;4880628;28;99279;-63
2021/03/23 01:07:31;;;;;;;7.10;3.00;;;;;;;10.00;55.53;101281.56;4883832;28;98961;-59
2021/03/23 01:09:57;;;;;;;7.03;3.00;;;;;;;10.03;55.77;101283.78;4883260;28;128801;-60
2021/03/23 01:12:23;;;;;;;6.57;2.97;;;;;;;10.00;55.37;101278.88;4866143;28;103411;-63
2021/03/23 01:14:49;;;;;;;6.55;2.80;;;;;;;9.99;55.59;101275.34;4865214;28;97864;-60
2021/03/23 01:17:16;;;;;;;5.75;3.10;;;;;;;9.96;56.22;101272.34;4864058;28;127920;-63
2021/03/23 01:19:42;;;;;;;7.00;3.08;;;;;;;9.97;55.95;101271.25;4865160;28;98447;-63
2021/03/23 01:22:08;;;;;;;6.40;2.92;;;;;;;9.98;55.90;101279.13;4862436;28;125819;-63
2021/03/23 01:24:35;;;;;;;6.07;3.10;;;;;;;9.99;55.50;101269.97;4877290;28;97937;-60
2021/03/23 01:27:01;;;;;;;6.60;3.08;;;;;;;9.96;55.63;101270.44;4882104;28;98913;-63
2021/03/23 01:29:29;;;;;;;5.15;2.83;;;;;;;9.96;55.90;101270.44;4884426;28;99480;-60
2021/03/23 01:31:57;;;;;;;5.63;2.78;;;;;;;9.99;55.86;101269.16;4870392;28;97961;-60
2021/03/23 01:34:23;;;;;;;6.57;2.95;;;;;;;10.00;56.29;101271.59;4875360;28;97808;-60
2021/03/23 01:36:49;;;;;;;7.60;3.30;;;;;;;9.97;56.13;101271.25;4864137;28;120510;-60
2021/03/23 01:39:15;;;;;;;5.88;2.97;;;;;;;9.95;56.39;101273.41;4863915;28;127768;-60
2021/03/23 01:41:41;;;;;;;6.25;3.15;;;;;;;9.96;56.41;101270.44;4863783;28;110303;-60
2021/03/23 01:44:07;;;;;;;5.05;2.83;;;;;;;9.97;55.68;101268.56;4865283;28;102174;-63
2021/03/23 01:46:47;;;;;;;6.50;2.72;;;;;;;9.95;56.81;101265.31;4864336;28;110165;-60
2021/03/23 01:49:24;;;;;;;4.88;2.50;;;;;;;9.95;56.31;101271.53;4864304;28;98945;-60
2021/03/23 01:51:53;;;;;;;4.82;2.60;;;;;;;9.98;56.25;101271.03;4864323;28;98044;-64
2021/03/23 01:54:29;;;;;;;6.10;2.97;;;;;;;9.95;57.00;101274.22;4831919;28;97975;-63
2021/03/23 01:56:58;;;;;;;5.30;2.55;;;;;;;9.97;56.54;101269.38;4862477;28;98129;-63
2021/03/23 01:59:25;;;;;;;4.68;2.53;;;;;;;9.94;56.20;101266.34;4848686;28;98633;-60
2021/03/23 02:01:51;;;;;;;6.65;2.78;;;;;;;9.95;56.94;101265.31;4863392;28;98520;-60
2021/03/23 02:04:17;;;;;;;6.25;3.10;;;;;;;9.94;56.30;101261.81;4846965;28;98048;-63
2021/03/23 02:06:45;;;;;;;6.80;2.80;;;;;;;9.94;56.72;101269.06;4859210;28;115573;-60
2021/03/23 02:09:16;;;;;;;4.40;2.50;;;;;;;9.93;56.93;101272.81;4881770;28;98478;-63
2021/03/23 02:11:49;;;;;;;5.80;2.78;;;;;;;9.93;56.85;101265.53;4882209;28;110699;-60
2021/03/23 02:14:16;;;;;;;7.03;2.50;;;;;;;9.91;56.95;101272.25;4862824;28;97745;-60
2021/03/23 02:16:44;;;;;;;5.30;2.50;;;;;;;9.94;56.39;101272.59;4864309;28;106872;-60
2021/03/23 02:19:10;;;;;;;5.40;2.42;;;;;;;9.94;56.92;101263.66;4865263;28;98740;-61
2021/03/23 02:21:36;;;;;;;5.22;2.33;;;;;;;9.91;57.23;101273.06;4864525;28;98160;-61
2021/03/23 02:24:02;;;;;;;4.88;2.50;;;;;;;9.91;57.16;101267.69;4864652;28;97985;-60
2021/03/23 02:26:32;;;;;;;4.28;2.35;;;;;;;9.91;56.88;101269.56;4864440;28;98299;-63
2021/03/23 02:29:14;;;;;;;5.28;2.28;;;;;;;9.89;56.61;101269.78;4863815;28;97814;-63
2021/03/23 02:31:42;;;;;;;5.37;2.20;;;;;;;9.82;57.52;101267.25;4863786;28;97920;-63
2021/03/23 02:34:12;;;;;;;4.90;2.63;;;;;;;9.89;57.44;101268.97;4862885;28;97707;-63
2021/03/23 02:36:39;;;;;;;4.82;2.53;;;;;;;9.89;57.27;101268.97;4863655;28;98827;-60
2021/03/23 02:39:06;;;;;;;5.13;2.25;;;;;;;9.85;57.00;101271.34;4863971;28;116097;-60
2021/03/23 02:41:32;;;;;;;4.30;2.38;;;;;;;9.82;57.56;101275.34;4880432;28;98425;-60
2021/03/23 02:43:58;;;;;;;6.15;2.50;;;;;;;9.89;56.95;101280.56;4883571;28;97917;-60
2021/03/23 02:46:25;;;;;;;7.75;2.38;;;;;;;9.83;57.12;101281.53;4865534;28;119844;-63
2021/03/23 02:48:51;;;;;;;4.18;2.10;;;;;;;9.82;57.74;101283.44;4863921;28;116696;-63
2021/03/23 02:51:17;;;;;;;4.80;2.30;;;;;;;9.87;57.45;101276.50;4862518;28;126297;-63
2021/03/23 02:53:47;;;;;;;5.68;2.08;;;;;;;9.86;57.25;101283.72;4864677;28;98062;-60
2021/03/23 02:56:14;;;;;;;5.57;2.55;;;;;;;9.82;57.98;101291.50;4864180;28;98009;-63
2021/03/23 02:58:40;;;;;;;3.90;2.30;;;;;;;9.87;57.21;101285.38;4864269;28;98567;-60
2021/03/23 03:01:09;;;;;;;4.68;2.28;;;;;;;9.84;57.43;101285.88;4864348;28;102933;-63
2021/03/23 03:03:35;;;;;;;6.43;2.58;;;;;;;9.86;58.21;101286.41;4871979;28;98079;-63
2021/03/23 03:06:01;;;;;;;7.78;2.50;;;;;;;9.92;57.39;101285.47;4864512;28;113048;-60
2021/03/23 03:08:27;;;;;;;5.45;2.42;;;;;;;9.95;57.50;101293.06;4873384;28;120763;-63
2021/03/23 03:10:54;;;;;;;4.55;2.25;;;;;;;9.96;57.59;101294.69;4863029;28;127441;-60
2021/03/23 03:13:22;;;;;;;4.93;2.40;;;;;;;9.99;57.04;101291.50;4865076;28;101008;-60
2021/03/23 03:15:50;;;;;;;3.83;2.20;;;;;;;10.04;57.67;101290.78;4863512;28;98867;-60
2021/03/23 03:18:16;;;;;;;4.68;2.20;;;;;;;10.06;57.13;101299.41;4863938;28;98557;-63
2021/03/23 03:20:45;;;;;;;3.90;2.05;;;;;;;10.11;57.53;101299.53;4860241;28;98127;-63
2021/03/23 03:23:11;;;;;;;4.57;2.10;;;;;;;10.06;57.44;101299.41;4846552;28;97789;-60
2021/03/23 03:25:38;;;;;;;4.88;1.90;;;;;;;10.05;57.23;101292.41;4861007;28;98344;-63
2021/03/23 03:28:06;;;;;;;3.83;1.90;;;;;;;10.07;57.98;101295.69;4862226;28;118690;-63
2021/03/23 03:30:34;;;;;;;5.25;1.98;;;;;;;10.11;57.93;101296.03;4865885;28;98378;-60
2021/03/23 03:33:00;;;;;;;4.03;1.67;;;;;;;10.09;57.91;101297.06;4882573;28;97633;-60
2021/03/23 03:35:30;;;;;;;3.28;1.80;;;;;;;10.07;58.09;101298.38;4880871;28;98037;-63
2021/03/23 03:37:56;;;;;;;5.22;1.90;;;;;;;10.13;57.60;101305.47;4863823;28;98456;-60
2021/03/23 03:40:32;;;;;;;4.07;1.73;;;;;;;10.05;57.88;101301.31;4862666;28;97787;-63
2021/03/23 03:42:58;;;;;;;4.35;1.70;;;;;;;10.13;57.79;101308.16;4861744;28;101959;-60
2021/03/23 03:45:25;;;;;;;3.83;1.60;;;;;;;10.14;58.06;101307.13;4863363;28;98025;-63
2021/03/23 03:47:55;;;;;;;3.03;1.48;;;;;;;10.09;57.63;101305.13;4863614;28;98850;-63
2021/03/23 03:50:22;;;;;;;3.30;1.60;;;;;;;10.09;57.81;101304.31;4860739;28;97891;-63
2021/03/23 03:52:49;;;;;;;2.70;1.00;;;;;;;10.13;58.31;101310.06;4863734;28;97877;-60
2021/03/23 03:55:17;;;;;;;4.05;1.67;;;;;;;10.12;58.24;101311.13;4862030;28;128093;-60
2021/03/23 03:57:43;;;;;;;4.38;1.40;;;;;;;10.08;58.33;101314.28;4861013;28;114311;-60
2021/03/23 04:00:10;;;;;;;4.63;1.40;;;;;;;10.07;58.27;101307.28;4862303;28;126402;-64
2021/03/23 04:02:36;;;;;;;2.67;1.10;;;;;;;10.11;58.42;101310.31;4845324;28;99013;-60
2021/03/23 04:05:04;;;;;;;4.28;1.50;;;;;;;10.06;59.02;101310.19;4873844;28;119752;-60
2021/03/23 04:07:31;;;;;;;3.40;1.10;;;;;;;10.09;58.87;101309.72;4881522;28;98762;-60
2021/03/23 04:09:57;;;;;;;2.72;0.90;;;;;;;10.08;58.60;101319.69;4881342;28;110373;-60
2021/03/23 04:12:23;;;;;;;3.17;0.93;;;;;;;10.07;58.83;101312.66;4881006;28;97843;-63
2021/03/23 04:14:50;;;;;;;3.60;1.10;;;;;;;10.08;58.35;101316.16;4865875;28;127824;-60
2021/03/23 04:17:16;;;;;;;2.88;1.15;;;;;;;10.06;59.00;101312.88;4883971;28;98469;-60
2021/03/23 04:19:42;;;;;;;2.95;0.90;;;;;;;10.05;58.51;101312.06;4881383;28;125500;-63
2021/03/23 04:22:08;;;;;;;2.70;0.90;;;;;;;10.03;58.52;101316.91;4884146;28;112660;-63
2021/03/23 04:24:34;;;;;;;2.28;0.90;;;;;;;10.09;58.45;101309.72;4882267;28;118680;-60
2021/03/23 04:27:00;;;;;;;2.92;1.00;;;;;;;10.05;59.38;101314.78;4883653;28;118006;-60
2021/03/23 04:29:26;;;;;;;2.42;0.60;;;;;;;10.04;59.03;101317.72;4883163;28;127470;-60
2021/03/23 04:31:52;;;;;;;1.92;0.80;;;;;;;10.02;59.58;101320.66;4877329;28;105331;-63
2021/03/23 04:34:18;;;;;;;3.03;0.60;;;;;;;10.08;59.09;101322.38;4864448;28;98987;-63
2021/03/23 04:36:45;;;;;;;2.88;0.82;;;;;;;10.07;59.24;101328.81;4865379;28;103497;-61
2021/03/23 04:39:12;;;;;;;2.17;0.60;;;;;;;10.03;59.39;101324.19;4866062;28;98349;-63
2021/03/23 04:41:38;;;;;;;1.88;0.52;;;;;;;10.00;59.28;101325.47;4848052;28;97824;-60
2021/03/23 04:44:05;;;;;;;3.25;0.70;;;;;;;9.99;59.47;101331.91;4864779;28;98401;-60
2021/03/23 04:46:31;;;;;;;2.08;0.60;;;;;;;10.03;59.13;101332.25;4878714;28;98643;-63
2021/03/23 04:48:57;;;;;;;2.42;0.57;;;;;;;10.00;59.06;101333.53;4884727;28;98073;-63
2021/03/23 04:51:26;;;;;;;2.20;0.63;;;;;;;10.05;59.56;101335.50;4883047;28;97991;-64
2021/03/23 04:54:07;;;;;;;2.20;0.50;;;;;;;9.98;59.91;101330.28;4851409;28;98797;-60
2021/03/23 04:56:38;;;;;;;2.30;0.47;;;;;;;9.99;59.88;101333.81;4884140;28;98062;-60
2021/03/23 04:59:05;;;;;;;1.85;0.50;;;;;;;10.04;59.71;101328.50;4868246;28;98148;-62
2021/03/23 05:01:31;;;;;;;1.48;0.50;;;;;;;9.99;59.91;101334.63;4884859;28;98088;-61
2021/03/23 05:04:04;;;;;;;1.30;0.45;;;;;;;9.97;60.57;101334.03;4879003;28;98523;-60
2021/03/23 05:06:30;;;;;;;;;;;;;;;9.95;60.51;101335.34;4871545;28;98561;-60
2021/03/23 05:08:56;;;;;;;2.60;0.40;;;;;;;9.93;60.53;101338.25;4882265;28;97879;-63
2021/03/23 05:11:29;;;;;;;1.45;0.40;;;;;;;9.95;60.49;101338.03;4882378;28;99055;-60
2021/03/23 05:13:55;;;;;;;1.27;0.40;;;;;;;9.97;60.89;101336.72;4865975;28;103621;-60
2021/03/23 05:16:21;;;;;;;2.22;0.43;;;;;;;9.98;60.48;101340.22;4865019;28;97764;-63
2021/03/23 05:18:49;;;;;;;1.17;0.40;;;;;;;9.96;60.75;101342.34;4864680;28;114049;-63
2021/03/23 05:21:16;;;;;;;1.65;0.40;;;;;;;9.97;60.72;101341.28;4865842;28;98076;-63
2021/03/23 05:23:42;;;;;;;2.20;0.40;;;;;;;9.98;60.81;101351.84;4865011;28;99313;-60
2021/03/23 05:26:08;;;;;;;2.42;0.40;;;;;;;9.97;61.17;101350.19;4870894;28;98455;-63
2021/03/23 05:28:34;;;;;;;1.63;0.40;;;;;;;10.02;60.83;101354.84;4869179;28;97858;-63
2021/03/23 05:31:01;;;;;;;1.75;0.50;;;;;;;9.98;60.87;101351.84;4863850;28;98123;-60
2021/03/23 05:33:28;;;;;;;1.55;0.38;;;;;;;10.00;60.88;101352.41;4864924;28;98546;-63
2021/03/23 05:35:56;;;;;;;1.90;0.55;;;;;;;10.04;61.33;101358.13;4862815;28;98974;-63
2021/03/23 05:38:26;;;;;;;1.33;0.40;;;;;;;9.97;61.48;101366.34;4864611;28;97761;-63
2021/03/23 05:41:06;;;;;;;1.45;0.45;;;;;;;9.96;61.54;101362.03;4861578;28;98019;-60
2021/03/23 05:43:50;;;;;;;1.67;0.43;;;;;;;9.97;61.25;101360.97;4845618;28;98151;-63
2021/03/23 05:46:35;;;;;;;1.05;0.30;;;;;;;10.02;61.27;101360.22;4861691;28;98010;-60
2021/03/23 05:49:31;;;;;;;1.65;0.35;;;;;;;10.08;61.58;101367.34;4861394;28;97926;-63
2021/03/23 05:52:26;;;;;;;1.77;0.50;;;;;;;10.01;61.31;101372.06;4860437;28;99111;-60
2021/03/23 05:55:09;;;;;;;1.90;0.45;;;;;;;10.05;61.28;101370.53;4859829;28;98796;-60
2021/03/23 05:57:41;;;;;;;;;;;;;;;10.08;60.86;101368.16;4864932;28;98667;-60
2021/03/23 06:00:25;;;;;;;2.10;0.40;;;;;;;10.11;61.61;101366.06;4867797;28;98437;-60
2021/03/23 06:03:19;;;;;;;1.55;0.43;;;;;;;10.09;61.30;101372.50;4859910;28;97797;-60
2021/03/23 06:06:18;;;;;;;2.00;0.50;;;;;;;10.21;61.34;101372.44;4867213;28;98546;-60
2021/03/23 06:08:45;;;;;;;1.67;0.47;;;;;;;10.18;61.07;101377.47;4861783;28;98079;-63
2021/03/23 06:11:43;;;;;;;1.40;0.45;;;;;;;10.21;61.47;101375.13;4861057;28;98136;-63
2021/03/23 06:15:13;;;;;;;1.75;0.60;;;;;;;10.31;62.09;101378.03;4865098;28;97885;-60
2021/03/23 06:17:57;;;;;;;2.28;0.50;;;;;;;10.35;61.70;101382.94;4866367;28;98513;-60
2021/03/23 06:21:06;;;;;;;1.73;0.57;;;;;;;10.35;61.51;101381.06;4846665;28;114348;-60
2021/03/23 06:24:06;;;;;;;2.47;0.50;;;;;;;10.39;61.78;101376.81;4852502;28;98390;-60
2021/03/23 06:26:44;;;;;;;2.45;0.55;;;;;;;10.40;61.96;101373.06;4865031;28;97983;-63
2021/03/23 06:29:42;;;;;;;2.47;0.60;;;;;;;10.37;61.50;101370.03;4867798;28;98194;-63
2021/03/23 06:32:40;;;;;;;1.90;0.68;;;;;;;10.42;62.13;101379.03;4882569;28;99336;-63
2021/03/23 06:35:09;;;;;;;2.35;0.43;;;;;;;10.47;62.15;101379.13;4881448;28;98547;-60
2021/03/23 06:37:38;;;;;;;2.13;0.55;;;;;;;10.46;61.81;101385.56;4863395;28;99225;-60
2021/03/23 06:40:21;;;;;;;1.48;0.60;;;;;;;10.48;61.83;101386.13;4872396;28;99117;-63
2021/03/23 06:42:52;;;;;;;1.92;0.70;;;;;;;10.50;61.86;101389.41;4863402;28;99142;-63
2021/03/23 06:45:37;;;;;;;1.55;0.50;;;;;;;10.56;62.62;101391.13;4861355;28;98132;-63
2021/03/23 06:48:28;;;;;;;1.80;0.60;;;;;;;10.48;62.51;101391.53;4864790;28;98073;-63
2021/03/23 06:51:10;;;;;;;1.77;0.60;;;;;;;10.56;62.53;101399.19;4865614;28;99039;-63
2021/03/23 06:53:37;;;;;;;2.63;0.77;;;;;;;10.57;61.88;101395.47;4862288;28;98442;-60
2021/03/23 06:56:28;;;;;;;1.55;0.70;;;;;;;10.56;62.67;101399.19;4866556;28;98076;-63
2021/03/23 06:59:17;;;;;;;2.40;0.75;;;;;;;10.55;62.26;101397.56;4870265;28;112698;-63
2021/03/23 07:01:48;;;;;;;2.65;0.95;;;;;;;10.59;62.46;101391.69;4852783;28;98081;-60
2021/03/23 07:04:39;;;;;;;2.40;1.10;;;;;;;10.64;62.51;101389.91;4872674;28;98821;-60
2021/03/23 07:07:16;;;;;;;1.92;0.55;;;;;;;10.67;62.17;101396.69;4883132;28;97976;-60
2021/03/23 07:10:00;;;;;;;1.98;0.75;;;;;;;10.65;62.04;101398.78;4882211;28;98218;-63
2021/03/23 07:12:39;;;;;;;1.70;0.60;;;;;;;10.66;63.32;101401.25;4879793;28;128230;-60
2021/03/23 07:15:20;;;;;;;2.38;0.68;;;;;;;10.72;62.62;101408.34;4882110;28;97798;-63
2021/03/23 07:17:49;;;;;;;2.70;0.80;;;;;;;10.82;61.93;101403.13;4881367;28;98115;-63
2021/03/23 07:20:29;;;;;;;2.13;0.80;;;;;;;10.87;61.66;101407.78;4849674;28;98067;-63
2021/03/23 07:22:55;;;;;;;1.60;0.50;;;;;;;10.99;61.54;101402.31;4883492;28;98088;-60
2021/03/23 07:25:40;;;;;;;1.23;0.50;;;;;;;11.05;61.87;101410.22;4880618;28;98790;-63
2021/03/23 07:28:20;;;;;;;1.70;0.60;;;;;;;11.09;61.60;101415.94;4866208;28;98376;-60
2021/03/23 07:31:11;;;;;;;2.70;0.55;;;;;;;11.03;61.73;101415.03;4883591;28;97926;-60
2021/03/23 07:34:04;;;;;;;2.15;0.55;;;;;;;11.02;61.83;101415.31;4861119;28;112741;-60
2021/03/23 07:36:54;;;;;;;1.50;0.47;;;;;;;10.97;62.12;101420.63;4860243;28;98873;-60
2021/03/23 07:39:29;;;;;;;1.60;0.50;;;;;;;10.96;62.81;101429.75;4839120;28;98227;-60
2021/03/23 07:42:07;;;;;;;1.63;0.60;;;;;;;10.96;63.25;101430.56;4861306;28;97811;-60
2021/03/23 07:44:40;;;;;;;2.38;0.47;;;;;;;11.00;62.70;101426.34;4862055;28;98738;-60
2021/03/23 07:47:34;;;;;;;1.63;0.40;;;;;;;11.01;62.96;101427.16;4860628;28;99076;-63
2021/03/23 07:50:24;;;;;;;2.28;0.60;;;;;;;11.07;62.88;101429.66;4862413;28;97817;-63
2021/03/23 07:53:00;;;;;;;1.35;0.50;;;;;;;11.17;62.28;101429.03;4861974;28;98107;-60
2021/03/23 07:55:27;;;;;;;1.23;0.40;;;;;;;11.27;62.51;101436.44;4846211;28;98022;-63
2021/03/23 07:58:24;;;;;;;2.17;0.50;;;;;;;11.31;61.92;101434.88;4845407;28;98740;-63
2021/03/23 08:01:10;;;;;;;1.55;0.40;;;;;;;11.31;62.05;101435.69;4861702;28;97879;-63
2021/03/23 08:04:03;;;;;;;1.67;0.40;;;;;;;11.37;61.70;101439.28;4861915;28;97982;-63
2021/03/23 08:06:55;;;;;;;1.75;0.40;;;;;;;11.41;61.57;101445.81;4860466;28;98067;-60
2021/03/23 08:09:52;;;;;;;1.25;0.40;;;;;;;11.39;62.40;101444.41;4861305;28;99275;-63
2021/03/23 08:12:53;;;;;;;1.20;0.40;;;;;;;11.54;61.90;101440.03;4862755;28;98012;-63
2021/03/23 08:16:26;;;;;;;1.88;0.40;;;;;;;11.54;61.64;101441.94;4861163;28;98239;-60
2021/03/23 08:19:38;;;;;;;1.15;0.40;;;;;;;11.57;62.35;101441.44;4828328;28;98894;-60
2021/03/23 08:22:38;;;;;;;1.10;0.40;;;;;;;11.60;61.48;101445.53;4862344;28;98213;-63
2021/03/23 08:25:22;;;;;;;1.40;0.30;;;;;;;11.70;61.76;101446.47;4863325;28;97911;-60
2021/03/23 08:29:08;;;;;;;1.92;0.50;;;;;;;11.92;60.73;101443.78;4860842;28;102178;-63
2021/03/23 08:31:55;;;;;;;0.77;0.32;;;;;;;12.05;61.18;101447.97;4868621;28;98384;-63
2021/03/23 08:34:46;;;;;;;1.42;0.40;;;;;;;12.16;60.57;101448.91;4862389;28;98484;-60
2021/03/23 08:37:52;;;;;;;1.45;0.35;;;;;;;12.04;61.33;101452.56;4861885;28;98161;-61
2021/03/23 08:40:53;;;;;;;1.40;0.30;;;;;;;12.02;61.31;101454.72;4860845;28;97990;-64
2021/03/23 08:43:44;;;;;;;2.03;0.60;;;;;;;12.31;60.38;101440.97;4860279;28;98725;-60
2021/03/23 08:46:27;;;;;;;1.63;0.60;;;;;;;12.56;59.64;101453.09;4860351;28;98507;-60
2021/03/23 08:49:06;;;;;;;2.08;0.70;;;;;;;12.48;60.35;101457.91;4861995;28;98063;-64
2021/03/23 08:51:33;;;;;;;1.50;0.77;;;;;;;12.45;60.73;101449.47;4844761;28;98024;-63
2021/03/23 08:54:03;;;;;;;1.75;0.70;;;;;;;12.53;60.38;101449.81;4909882;28;104142;-60
2021/03/23 08:56:41;;;;;;;1.52;0.70;;;;;;;12.38;60.76;101448.84;4864520;28;98550;-60
2021/03/23 08:59:33;;;;;;;1.15;0.77;;;;;;;12.20;61.61;101458.97;4869821;28;97728;-60
2021/03/23 09:02:00;;;;;;;1.33;0.73;;;;;;;12.26;61.01;101452.56;4870194;28;97864;-63
2021/03/23 09:04:41;;;;;;;2.10;0.75;;;;;;;12.26;61.09;101457.97;4830926;28;100145;-60
2021/03/23 09:07:16;;;;;;;1.63;0.65;;;;;;;12.37;60.83;101456.16;4832449;28;98601;-60
2021/03/23 09:09:49;;;;;;;1.77;0.70;;;;;;;12.56;60.44;101453.91;4864784;28;98096;-60
2021/03/23 09:12:41;;;;;;;1.90;0.80;;;;;;;12.64;60.46;101461.56;4864789;28;98043;-60
2021/03/23 09:15:17;;;;;;;1.80;0.80;;;;;;;12.61;60.56;101458.53;4864669;28;97959;-60
2021/03/23 09:18:26;;;;;;;1.80;0.80;;;;;;;12.75;60.16;101465.97;4866034;28;97909;-60
2021/03/23 09:20:52;;;;;;;1.88;0.70;;;;;;;12.83;59.71;101464.69;4864209;28;97751;-63
2021/03/23 09:23:18;;;;;;;0.93;0.43;;;;;;;12.78;60.57;101470.06;4874499;28;97794;-60
2021/03/23 09:25:58;;;;;;;1.48;0.63;;;;;;;12.78;60.20;101462.78;4881101;28;99017;-63
2021/03/23 09:28:30;;;;;;;1.15;0.85;;;;;;;12.79;60.19;101469.00;4880370;28;99488;-60
2021/03/23 09:31:06;;;;;;;1.38;0.80;;;;;;;12.87;60.19;101473.13;4883187;28;98015;-63
2021/03/23 09:33:36;;;;;;;1.75;0.73;;;;;;;12.92;59.90;101473.16;4882864;28;97935;-65
2021/03/23 09:36:09;;;;;;;1.23;0.50;;;;;;;12.97;59.91;101468.63;4879610;28;99469;-60
2021/03/23 09:38:40;;;;;;;0.82;0.40;;;;;;;13.15;59.51;101477.38;4882839;28;98145;-60
2021/03/23 09:41:22;;;;;;;1.60;0.60;;;;;;;13.29;59.25;101469.69;4881872;28;98543;-63
2021/03/23 09:44:09;;;;;;;1.38;0.75;;;;;;;13.31;59.29;101473.72;4882145;28;97939;-64
2021/03/23 09:46:47;;;;;;;1.10;0.50;;;;;;;13.35;59.47;101469.44;4869656;28;99909;-60
2021/03/23 09:49:46;;;;;;;1.13;0.60;;;;;;;13.44;59.43;101475.16;4867448;28;98636;-60
2021/03/23 09:52:17;;;;;;;1.42;0.90;;;;;;;13.57;59.08;101472.00;4880960;28;98606;-60
2021/03/23 09:54:46;;;;;;;1.80;0.90;;;;;;;13.78;58.35;101472.09;4880088;28;98217;-64
2021/03/23 09:57:24;;;;;;;2.50;0.80;;;;;;;13.93;57.91;101477.59;4864018;28;98585;-60
2021/03/23 09:59:57;;;;;;;1.35;0.70;;;;;;;14.17;57.43;101469.78;4864102;28;99087;-63
2021/03/23 10:02:34;;;;;;;1.50;0.70;;;;;;;14.21;57.53;101473.59;4862153;28;98039;-63
2021/03/23 10:05:25;;;;;;;1.50;0.57;;;;;;;14.23;58.05;101472.25;4864825;28;97989;-64
2021/03/23 10:07:53;;;;;;;0.98;0.50;;;;;;;14.34;57.95;101477.69;4863863;28;98746;-64
2021/03/23 10:10:32;;;;;;;1.33;0.50;;;;;;;14.34;57.59;101467.66;4863691;28;97842;-64
2021/03/23 10:13:29;;;;;;;1.08;0.40;;;;;;;14.49;57.53;101475.84;4863736;28;98387;-60
2021/03/23 10:15:57;;;;;;;1.77;0.50;;;;;;;14.48;57.58;101476.09;4864570;28;97884;-60
2021/03/23 10:18:30;;;;;;;1.25;0.50;;;;;;;14.39;57.87;101478.53;4864048;28;99113;-60
2021/03/23 10:20:57;;;;;;;1.05;0.55;;;;;;;14.40;57.34;101479.34;4861853;28;98573;-61
2021/03/23 10:23:24;;;;;;;1.02;0.55;;;;;;;14.25;57.35;101480.13;4874695;28;98189;-64
2021/03/23 10:25:50;;;;;;;1.77;0.60;;;;;;;14.18;57.56;101474.13;4883827;28;97851;-60
2021/03/23 10:28:34;;;;;;;1.30;0.50;;;;;;;14.14;58.20;101483.88;4865396;28;98419;-60
2021/03/23 10:31:37;;;;;;;0.90;0.40;;;;;;;14.21;58.22;101477.13;4883683;28;98609;-60
2021/03/23 10:34:13;;;;;;;;;;;;;;;14.28;57.76;101473.34;4879781;28;113644;-63
2021/03/23 10:36:54;;;;;;;1.30;0.43;;;;;;;14.23;57.59;101476.88;4882954;28;97983;-63
2021/03/23 10:39:43;;;;;;;0.98;0.30;;;;;;;14.18;58.24;101477.66;4883378;28;98626;-63
2021/03/23 10:42:30;;;;;;;0.88;0.40;;;;;;;14.29;57.69;101477.69;4882987;28;99283;-63
2021/03/23 10:45:27;;;;;;;1.52;0.50;;;;;;;14.34;57.66;101481.22;4883194;28;98357;-60
2021/03/23 10:48:24;;;;;;;2.05;0.60;;;;;;;14.43;57.56;101479.63;4872121;28;98104;-60
2021/03/23 10:51:24;;;;;;;1.55;0.60;;;;;;;14.40;57.21;101482.88;4872128;28;99273;-63
2021/03/23 10:54:09;;;;;;;1.85;0.70;;;;;;;14.48;57.25;101482.34;4863546;28;98209;-60
2021/03/23 10:56:44;;;;;;;2.15;1.00;;;;;;;14.47;57.55;101491.56;4863299;28;98453;-61
2021/03/23 10:59:15;;;;;;;1.90;0.90;;;;;;;14.47;57.49;101490.75;4864262;28;97920;-61
2021/03/23 11:02:15;;;;;;;1.13;0.88;;;;;;;14.52;57.64;101490.78;4861519;28;98250;-61
2021/03/23 11:05:05;;;;;;;1.00;0.80;;;;;;;14.70;56.63;101475.91;4863054;28;97990;-64
2021/03/23 11:07:31;;;;;;;1.90;0.82;;;;;;;14.72;56.95;101476.44;4863808;28;98014;-60
2021/03/23 11:10:00;;;;;;;1.38;0.65;;;;;;;14.71;57.11;101483.75;4861304;28;101063;-64
2021/03/23 11:12:27;;;;;;;1.40;0.73;;;;;;;14.66;57.29;101485.66;4864074;28;98361;-64
2021/03/23 11:14:54;;;;;;;1.50;1.17;;;;;;;14.54;57.45;101485.94;4861445;28;108179;-61
2021/03/23 11:17:23;;;;;;;2.13;1.00;;;;;;;14.34;57.99;101483.94;4868361;28;97921;-60
2021/03/23 11:19:59;;;;;;;1.27;0.65;;;;;;;14.22;58.00;101491.50;4865248;28;97946;-64
2021/03/23 11:22:30;;;;;;;2.45;0.90;;;;;;;14.19;58.25;101492.88;4880445;28;98550;-61
2021/03/23 11:24:56;;;;;;;1.50;1.17;;;;;;;14.21;58.01;101496.09;4880438;28;98754;-63
2021/03/23 11:27:26;;;;;;;2.22;0.80;;;;;;;14.16;58.30;101493.38;4882286;28;97748;-60
2021/03/23 11:29:53;;;;;;;1.50;0.90;;;;;;;14.24;57.84;101494.78;4883030;28;97771;-64
2021/03/23 11:32:19;;;;;;;1.00;0.77;;;;;;;14.35;57.35;101480.16;4881689;28;98558;-64
2021/03/23 11:34:45;;;;;;;1.75;1.10;;;;;;;14.37;57.63;101480.69;4882358;28;98466;-64
2021/03/23 11:37:11;;;;;;;1.48;0.93;;;;;;;14.52;57.01;101488.06;4882117;28;103571;-64
2021/03/23 11:39:37;;;;;;;2.03;1.17;;;;;;;14.58;57.03;101481.59;4882969;28;98049;-64
2021/03/23 11:42:15;;;;;;;2.00;1.13;;;;;;;14.58;56.96;101487.00;4881049;28;128277;-60
2021/03/23 11:44:44;;;;;;;2.28;1.20;;;;;;;14.78;56.25;101486.22;4872383;28;98612;-60
2021/03/23 11:47:25;;;;;;;1.30;1.08;;;;;;;14.77;56.59;101484.56;4833177;28;99011;-60
2021/03/23 11:50:06;;;;;;;1.52;1.42;;;;;;;14.82;56.09;101479.16;4883140;28;97862;-64
2021/03/23 11:52:33;;;;;;;2.35;1.60;;;;;;;14.76;56.65;101484.84;4868494;28;98218;-64
2021/03/23 11:55:02;;;;;;;1.95;1.40;;;;;;;14.81;56.36;101476.69;4861026;28;98904;-60
2021/03/23 11:57:29;;;;;;;1.90;1.33;;;;;;;14.73;56.49;101472.63;4862858;28;98505;-61
2021/03/23 11:59:55;;;;;;;1.50;1.02;;;;;;;14.61;56.93;101478.31;4863430;28;98030;-63
2021/03/23 12:02:22;;;;;;;1.23;0.90;;;;;;;14.58;57.01;101464.47;4862420;28;112009;-60